sensor_id;sensor_type;location;lat;lon;timestamp;P1;durP1;ratioP1;P2;durP2;ratioP2
13999;SDS011;7075;53.574;10.054;2023-08-20T00:02:09;9.23;;;5.10;;
13999;SDS011;7075;53.574;10.054;2023-08-20T00:04:37;12.03;;;4.80;;
13999;SDS011;7075;53.574;10.054;2023-08-20T00:07:03;11.83;;;5.93;;
13999;SDS011;7075;53.574;10.054;2023-08-20T00:09:29;12.93;;;4.17;;
13999;SDS011;7075;53.574;10.054;2023-08-20T00:11:55;11.43;;;5.10;;
13999;SDS011;7075;53.574;10.054;2023-08-20T00:14:24;10.07;;;4.90;;
13999;SDS011;7075;53.574;10.054;2023-08-20T00:17:07;12.17;;;4.63;;
13999;SDS011;7075;53.574;10.054;2023-08-20T00:19:34;9.93;;;4.40;;
13999;SDS011;7075;53.574;10.054;2023-08-20T00:22:00;7.90;;;4.30;;
13999;SDS011;7075;53.574;10.054;2023-08-20T00:24:26;16.03;;;6.03;;
13999;SDS011;7075;53.574;10.054;2023-08-20T00:26:52;10.63;;;4.47;;
13999;SDS011;7075;53.574;10.054;2023-08-20T00:29:18;11.43;;;4.93;;
13999;SDS011;7075;53.574;10.054;2023-08-20T00:31:44;20.33;;;5.97;;
13999;SDS011;7075;53.574;10.054;2023-08-20T00:34:10;11.60;;;5.70;;
13999;SDS011;7075;53.574;10.054;2023-08-20T00:36:35;12.77;;;4.90;;
13999;SDS011;7075;53.574;10.054;2023-08-20T00:39:02;11.90;;;4.93;;
13999;SDS011;7075;53.574;10.054;2023-08-20T00:41:28;13.33;;;5.50;;
13999;SDS011;7075;53.574;10.054;2023-08-20T00:43:54;9.07;;;4.70;;
13999;SDS011;7075;53.574;10.054;2023-08-20T00:46:20;11.33;;;6.17;;
13999;SDS011;7075;53.574;10.054;2023-08-20T00:48:46;14.53;;;5.83;;
13999;SDS011;7075;53.574;10.054;2023-08-20T00:51:12;14.73;;;5.47;;
13999;SDS011;7075;53.574;10.054;2023-08-20T00:53:38;13.20;;;6.50;;
13999;SDS011;7075;53.574;10.054;2023-08-20T00:56:04;13.03;;;5.67;;
13999;SDS011;7075;53.574;10.054;2023-08-20T00:58:30;12.70;;;5.00;;
13999;SDS011;7075;53.574;10.054;2023-08-20T01:00:56;10.00;;;5.40;;
13999;SDS011;7075;53.574;10.054;2023-08-20T01:03:22;8.67;;;5.00;;
13999;SDS011;7075;53.574;10.054;2023-08-20T01:05:50;14.20;;;6.03;;
13999;SDS011;7075;53.574;10.054;2023-08-20T01:11:00;15.27;;;5.73;;
13999;SDS011;7075;53.574;10.054;2023-08-20T01:13:27;10.47;;;5.60;;
13999;SDS011;7075;53.574;10.054;2023-08-20T01:15:53;14.13;;;5.80;;
13999;SDS011;7075;53.574;10.054;2023-08-20T01:18:19;8.30;;;4.17;;
13999;SDS011;7075;53.574;10.054;2023-08-20T01:20:55;11.50;;;5.20;;
13999;SDS011;7075;53.574;10.054;2023-08-20T01:30:49;14.13;;;5.60;;
13999;SDS011;7075;53.574;10.054;2023-08-20T01:33:17;11.43;;;5.87;;
13999;SDS011;7075;53.574;10.054;2023-08-20T01:35:44;12.60;;;5.43;;
13999;SDS011;7075;53.574;10.054;2023-08-20T01:38:10;8.33;;;5.40;;
13999;SDS011;7075;53.574;10.054;2023-08-20T01:40:36;10.80;;;5.27;;
13999;SDS011;7075;53.574;10.054;2023-08-20T01:43:03;10.03;;;5.47;;
13999;SDS011;7075;53.574;10.054;2023-08-20T01:45:29;10.27;;;5.30;;
13999;SDS011;7075;53.574;10.054;2023-08-20T01:47:54;9.00;;;5.20;;
13999;SDS011;7075;53.574;10.054;2023-08-20T01:50:20;11.27;;;5.27;;
13999;SDS011;7075;53.574;10.054;2023-08-20T01:52:46;9.07;;;5.87;;
13999;SDS011;7075;53.574;10.054;2023-08-20T01:55:12;7.30;;;5.47;;
13999;SDS011;7075;53.574;10.054;2023-08-20T01:57:38;11.40;;;4.97;;
13999;SDS011;7075;53.574;10.054;2023-08-20T02:00:04;13.90;;;5.53;;
13999;SDS011;7075;53.574;10.054;2023-08-20T02:02:31;10.00;;;5.00;;
13999;SDS011;7075;53.574;10.054;2023-08-20T02:04:59;13.53;;;6.13;;
13999;SDS011;7075;53.574;10.054;2023-08-20T02:07:25;10.43;;;5.90;;
13999;SDS011;7075;53.574;10.054;2023-08-20T02:09:51;12.73;;;5.87;;
13999;SDS011;7075;53.574;10.054;2023-08-20T02:12:17;12.03;;;6.03;;
13999;SDS011;7075;53.574;10.054;2023-08-20T02:14:44;10.20;;;5.83;;
13999;SDS011;7075;53.574;10.054;2023-08-20T02:17:10;12.93;;;5.57;;
13999;SDS011;7075;53.574;10.054;2023-08-20T02:19:37;8.00;;;5.27;;
13999;SDS011;7075;53.574;10.054;2023-08-20T02:22:03;11.97;;;6.17;;
13999;SDS011;7075;53.574;10.054;2023-08-20T02:24:29;7.50;;;4.57;;
13999;SDS011;7075;53.574;10.054;2023-08-20T02:26:55;10.57;;;4.87;;
13999;SDS011;7075;53.574;10.054;2023-08-20T02:29:22;8.70;;;5.30;;
13999;SDS011;7075;53.574;10.054;2023-08-20T02:31:48;13.43;;;6.23;;
13999;SDS011;7075;53.574;10.054;2023-08-20T02:34:14;13.03;;;5.70;;
13999;SDS011;7075;53.574;10.054;2023-08-20T02:36:41;12.53;;;5.53;;
13999;SDS011;7075;53.574;10.054;2023-08-20T02:39:06;10.17;;;5.87;;
13999;SDS011;7075;53.574;10.054;2023-08-20T02:41:36;10.43;;;5.30;;
13999;SDS011;7075;53.574;10.054;2023-08-20T02:44:02;11.27;;;5.20;;
13999;SDS011;7075;53.574;10.054;2023-08-20T02:46:29;7.80;;;4.43;;
13999;SDS011;7075;53.574;10.054;2023-08-20T02:48:55;11.87;;;5.70;;
13999;SDS011;7075;53.574;10.054;2023-08-20T02:51:21;11.37;;;5.90;;
13999;SDS011;7075;53.574;10.054;2023-08-20T02:53:47;11.03;;;5.73;;
13999;SDS011;7075;53.574;10.054;2023-08-20T02:56:13;8.27;;;5.13;;
13999;SDS011;7075;53.574;10.054;2023-08-20T02:58:39;7.30;;;4.83;;
13999;SDS011;7075;53.574;10.054;2023-08-20T03:01:05;12.73;;;5.90;;
13999;SDS011;7075;53.574;10.054;2023-08-20T03:03:31;9.73;;;5.33;;
13999;SDS011;7075;53.574;10.054;2023-08-20T03:05:57;9.70;;;5.63;;
13999;SDS011;7075;53.574;10.054;2023-08-20T03:08:23;8.80;;;5.20;;
13999;SDS011;7075;53.574;10.054;2023-08-20T03:10:49;10.87;;;6.90;;
13999;SDS011;7075;53.574;10.054;2023-08-20T03:13:15;12.33;;;5.57;;
13999;SDS011;7075;53.574;10.054;2023-08-20T03:15:41;9.47;;;5.90;;
13999;SDS011;7075;53.574;10.054;2023-08-20T03:18:07;10.93;;;5.70;;
13999;SDS011;7075;53.574;10.054;2023-08-20T03:20:34;10.40;;;5.93;;
13999;SDS011;7075;53.574;10.054;2023-08-20T03:26:03;6.97;;;4.73;;
13999;SDS011;7075;53.574;10.054;2023-08-20T03:28:29;9.60;;;5.20;;
13999;SDS011;7075;53.574;10.054;2023-08-20T03:30:58;9.20;;;4.93;;
13999;SDS011;7075;53.574;10.054;2023-08-20T03:33:25;6.33;;;4.53;;
13999;SDS011;7075;53.574;10.054;2023-08-20T03:35:52;9.97;;;4.90;;
13999;SDS011;7075;53.574;10.054;2023-08-20T03:38:18;8.67;;;5.27;;
13999;SDS011;7075;53.574;10.054;2023-08-20T03:40:44;13.73;;;5.80;;
13999;SDS011;7075;53.574;10.054;2023-08-20T03:43:11;9.07;;;4.97;;
13999;SDS011;7075;53.574;10.054;2023-08-20T03:45:37;7.90;;;5.53;;
13999;SDS011;7075;53.574;10.054;2023-08-20T03:48:03;11.73;;;5.40;;
13999;SDS011;7075;53.574;10.054;2023-08-20T03:50:29;9.27;;;4.80;;
13999;SDS011;7075;53.574;10.054;2023-08-20T03:52:55;8.20;;;4.60;;
13999;SDS011;7075;53.574;10.054;2023-08-20T03:55:21;9.40;;;4.80;;
13999;SDS011;7075;53.574;10.054;2023-08-20T03:57:47;7.67;;;4.47;;
13999;SDS011;7075;53.574;10.054;2023-08-20T04:00:14;8.50;;;4.93;;
13999;SDS011;7075;53.574;10.054;2023-08-20T04:02:40;9.07;;;4.87;;
13999;SDS011;7075;53.574;10.054;2023-08-20T04:05:06;9.00;;;5.23;;
13999;SDS011;7075;53.574;10.054;2023-08-20T04:07:33;10.03;;;5.77;;
13999;SDS011;7075;53.574;10.054;2023-08-20T04:09:59;13.47;;;6.27;;
13999;SDS011;7075;53.574;10.054;2023-08-20T04:12:25;15.97;;;6.40;;
13999;SDS011;7075;53.574;10.054;2023-08-20T04:14:51;10.23;;;6.27;;
13999;SDS011;7075;53.574;10.054;2023-08-20T04:17:18;16.40;;;7.80;;
13999;SDS011;7075;53.574;10.054;2023-08-20T04:19:44;8.30;;;5.67;;
13999;SDS011;7075;53.574;10.054;2023-08-20T04:22:11;7.80;;;5.40;;
13999;SDS011;7075;53.574;10.054;2023-08-20T04:24:37;10.30;;;6.00;;
13999;SDS011;7075;53.574;10.054;2023-08-20T04:27:03;9.93;;;5.93;;
13999;SDS011;7075;53.574;10.054;2023-08-20T04:29:29;9.23;;;5.97;;
13999;SDS011;7075;53.574;10.054;2023-08-20T04:31:55;10.00;;;5.73;;
13999;SDS011;7075;53.574;10.054;2023-08-20T04:34:21;11.20;;;6.10;;
13999;SDS011;7075;53.574;10.054;2023-08-20T04:36:47;11.73;;;7.13;;
13999;SDS011;7075;53.574;10.054;2023-08-20T04:39:13;9.30;;;5.77;;
13999;SDS011;7075;53.574;10.054;2023-08-20T04:41:39;11.47;;;5.87;;
13999;SDS011;7075;53.574;10.054;2023-08-20T04:44:05;9.53;;;7.03;;
13999;SDS011;7075;53.574;10.054;2023-08-20T04:46:31;10.57;;;6.47;;
13999;SDS011;7075;53.574;10.054;2023-08-20T04:48:57;14.80;;;11.13;;
13999;SDS011;7075;53.574;10.054;2023-08-20T04:51:24;13.83;;;9.40;;
13999;SDS011;7075;53.574;10.054;2023-08-20T04:53:49;15.83;;;11.17;;
13999;SDS011;7075;53.574;10.054;2023-08-20T04:56:15;16.77;;;11.77;;
13999;SDS011;7075;53.574;10.054;2023-08-20T04:58:42;18.80;;;11.27;;
13999;SDS011;7075;53.574;10.054;2023-08-20T05:01:08;19.47;;;11.23;;
13999;SDS011;7075;53.574;10.054;2023-08-20T05:03:35;15.67;;;11.63;;
13999;SDS011;7075;53.574;10.054;2023-08-20T05:06:01;21.53;;;12.43;;
13999;SDS011;7075;53.574;10.054;2023-08-20T05:08:28;24.73;;;13.57;;
13999;SDS011;7075;53.574;10.054;2023-08-20T05:10:53;23.93;;;14.20;;
13999;SDS011;7075;53.574;10.054;2023-08-20T05:13:19;22.63;;;13.43;;
13999;SDS011;7075;53.574;10.054;2023-08-20T05:15:46;28.57;;;14.37;;
13999;SDS011;7075;53.574;10.054;2023-08-20T05:18:12;19.23;;;14.23;;
13999;SDS011;7075;53.574;10.054;2023-08-20T05:20:39;22.43;;;14.07;;
13999;SDS011;7075;53.574;10.054;2023-08-20T05:23:06;22.90;;;15.50;;
13999;SDS011;7075;53.574;10.054;2023-08-20T05:25:34;21.73;;;14.83;;
13999;SDS011;7075;53.574;10.054;2023-08-20T05:28:00;24.77;;;14.93;;
13999;SDS011;7075;53.574;10.054;2023-08-20T05:30:26;21.80;;;15.37;;
13999;SDS011;7075;53.574;10.054;2023-08-20T05:32:52;28.27;;;17.90;;
13999;SDS011;7075;53.574;10.054;2023-08-20T05:35:18;32.63;;;18.90;;
13999;SDS011;7075;53.574;10.054;2023-08-20T05:37:45;37.37;;;21.50;;
13999;SDS011;7075;53.574;10.054;2023-08-20T05:40:11;34.07;;;19.50;;
13999;SDS011;7075;53.574;10.054;2023-08-20T05:42:37;30.77;;;19.60;;
13999;SDS011;7075;53.574;10.054;2023-08-20T05:45:04;43.93;;;23.17;;
13999;SDS011;7075;53.574;10.054;2023-08-20T05:47:30;32.57;;;18.77;;
13999;SDS011;7075;53.574;10.054;2023-08-20T05:49:55;31.93;;;19.37;;
13999;SDS011;7075;53.574;10.054;2023-08-20T05:52:21;31.03;;;18.57;;
13999;SDS011;7075;53.574;10.054;2023-08-20T05:54:48;31.73;;;17.77;;
13999;SDS011;7075;53.574;10.054;2023-08-20T05:57:14;29.10;;;17.43;;
13999;SDS011;7075;53.574;10.054;2023-08-20T05:59:40;22.00;;;17.23;;
13999;SDS011;7075;53.574;10.054;2023-08-20T06:02:06;23.73;;;16.70;;
13999;SDS011;7075;53.574;10.054;2023-08-20T06:04:32;25.13;;;15.40;;
13999;SDS011;7075;53.574;10.054;2023-08-20T06:06:58;19.63;;;14.13;;
13999;SDS011;7075;53.574;10.054;2023-08-20T06:09:24;17.90;;;13.20;;
13999;SDS011;7075;53.574;10.054;2023-08-20T06:11:50;29.70;;;17.17;;
13999;SDS011;7075;53.574;10.054;2023-08-20T06:14:16;22.60;;;15.53;;
13999;SDS011;7075;53.574;10.054;2023-08-20T06:16:42;25.27;;;15.43;;
13999;SDS011;7075;53.574;10.054;2023-08-20T06:19:09;27.07;;;18.37;;
13999;SDS011;7075;53.574;10.054;2023-08-20T06:21:35;23.07;;;15.60;;
13999;SDS011;7075;53.574;10.054;2023-08-20T06:24:01;24.57;;;16.33;;
13999;SDS011;7075;53.574;10.054;2023-08-20T06:26:28;40.70;;;20.97;;
13999;SDS011;7075;53.574;10.054;2023-08-20T06:28:54;33.77;;;20.53;;
13999;SDS011;7075;53.574;10.054;2023-08-20T06:31:19;29.23;;;18.73;;
13999;SDS011;7075;53.574;10.054;2023-08-20T06:33:46;35.97;;;18.33;;
13999;SDS011;7075;53.574;10.054;2023-08-20T06:36:13;30.53;;;17.20;;
13999;SDS011;7075;53.574;10.054;2023-08-20T06:38:39;36.50;;;19.00;;
13999;SDS011;7075;53.574;10.054;2023-08-20T06:41:05;37.43;;;20.40;;
13999;SDS011;7075;53.574;10.054;2023-08-20T06:43:31;33.87;;;21.13;;
13999;SDS011;7075;53.574;10.054;2023-08-20T06:45:58;37.00;;;18.83;;
13999;SDS011;7075;53.574;10.054;2023-08-20T06:48:24;39.57;;;21.73;;
13999;SDS011;7075;53.574;10.054;2023-08-20T06:50:51;33.70;;;17.83;;
13999;SDS011;7075;53.574;10.054;2023-08-20T06:53:17;51.60;;;27.87;;
13999;SDS011;7075;53.574;10.054;2023-08-20T06:55:43;37.73;;;21.17;;
13999;SDS011;7075;53.574;10.054;2023-08-20T06:58:09;32.73;;;20.53;;
13999;SDS011;7075;53.574;10.054;2023-08-20T07:00:35;30.97;;;18.43;;
13999;SDS011;7075;53.574;10.054;2023-08-20T07:03:02;29.17;;;17.13;;
13999;SDS011;7075;53.574;10.054;2023-08-20T07:05:29;26.30;;;16.73;;
13999;SDS011;7075;53.574;10.054;2023-08-20T07:07:56;24.73;;;17.03;;
13999;SDS011;7075;53.574;10.054;2023-08-20T07:10:21;25.03;;;17.20;;
13999;SDS011;7075;53.574;10.054;2023-08-20T07:12:47;32.70;;;17.53;;
13999;SDS011;7075;53.574;10.054;2023-08-20T07:15:13;29.63;;;18.00;;
13999;SDS011;7075;53.574;10.054;2023-08-20T07:17:40;24.67;;;16.73;;
13999;SDS011;7075;53.574;10.054;2023-08-20T07:20:06;23.67;;;16.37;;
13999;SDS011;7075;53.574;10.054;2023-08-20T07:22:32;41.70;;;19.57;;
13999;SDS011;7075;53.574;10.054;2023-08-20T07:24:58;27.00;;;19.43;;
13999;SDS011;7075;53.574;10.054;2023-08-20T07:27:24;29.40;;;19.80;;
13999;SDS011;7075;53.574;10.054;2023-08-20T07:29:50;28.83;;;19.10;;
13999;SDS011;7075;53.574;10.054;2023-08-20T07:32:16;34.13;;;22.87;;
13999;SDS011;7075;53.574;10.054;2023-08-20T07:34:42;29.50;;;20.00;;
13999;SDS011;7075;53.574;10.054;2023-08-20T07:37:08;34.37;;;23.57;;
13999;SDS011;7075;53.574;10.054;2023-08-20T07:39:34;34.27;;;23.73;;
13999;SDS011;7075;53.574;10.054;2023-08-20T07:42:01;33.67;;;24.20;;
13999;SDS011;7075;53.574;10.054;2023-08-20T07:44:27;31.33;;;23.13;;
13999;SDS011;7075;53.574;10.054;2023-08-20T07:46:53;28.37;;;20.03;;
13999;SDS011;7075;53.574;10.054;2023-08-20T07:49:19;32.60;;;21.47;;
13999;SDS011;7075;53.574;10.054;2023-08-20T07:51:46;28.47;;;18.57;;
13999;SDS011;7075;53.574;10.054;2023-08-20T07:54:13;24.30;;;18.07;;
13999;SDS011;7075;53.574;10.054;2023-08-20T07:56:39;27.73;;;20.13;;
13999;SDS011;7075;53.574;10.054;2023-08-20T07:59:05;21.30;;;17.00;;
13999;SDS011;7075;53.574;10.054;2023-08-20T08:01:31;27.73;;;17.77;;
13999;SDS011;7075;53.574;10.054;2023-08-20T08:03:57;24.23;;;16.33;;
13999;SDS011;7075;53.574;10.054;2023-08-20T08:06:23;18.20;;;13.97;;
13999;SDS011;7075;53.574;10.054;2023-08-20T08:08:49;18.87;;;13.10;;
13999;SDS011;7075;53.574;10.054;2023-08-20T08:11:15;15.13;;;12.40;;
13999;SDS011;7075;53.574;10.054;2023-08-20T08:13:42;11.30;;;9.17;;
13999;SDS011;7075;53.574;10.054;2023-08-20T08:16:08;17.80;;;8.47;;
13999;SDS011;7075;53.574;10.054;2023-08-20T08:18:34;12.63;;;7.77;;
13999;SDS011;7075;53.574;10.054;2023-08-20T08:21:01;11.97;;;6.03;;
13999;SDS011;7075;53.574;10.054;2023-08-20T08:23:27;7.87;;;5.60;;
13999;SDS011;7075;53.574;10.054;2023-08-20T08:25:54;8.10;;;4.47;;
13999;SDS011;7075;53.574;10.054;2023-08-20T08:28:20;5.67;;;3.57;;
13999;SDS011;7075;53.574;10.054;2023-08-20T08:30:46;10.83;;;4.90;;
13999;SDS011;7075;53.574;10.054;2023-08-20T08:33:12;10.83;;;4.67;;
13999;SDS011;7075;53.574;10.054;2023-08-20T08:35:39;6.23;;;3.80;;
13999;SDS011;7075;53.574;10.054;2023-08-20T08:38:05;6.30;;;3.20;;
13999;SDS011;7075;53.574;10.054;2023-08-20T08:40:31;6.50;;;2.93;;
13999;SDS011;7075;53.574;10.054;2023-08-20T08:42:58;6.53;;;3.33;;
13999;SDS011;7075;53.574;10.054;2023-08-20T08:45:26;7.03;;;3.53;;
13999;SDS011;7075;53.574;10.054;2023-08-20T08:47:52;9.20;;;2.70;;
13999;SDS011;7075;53.574;10.054;2023-08-20T08:50:19;5.40;;;2.57;;
13999;SDS011;7075;53.574;10.054;2023-08-20T08:52:46;4.97;;;2.77;;
13999;SDS011;7075;53.574;10.054;2023-08-20T08:55:13;4.70;;;3.37;;
13999;SDS011;7075;53.574;10.054;2023-08-20T08:57:40;7.77;;;3.33;;
13999;SDS011;7075;53.574;10.054;2023-08-20T09:00:06;4.67;;;2.77;;
13999;SDS011;7075;53.574;10.054;2023-08-20T09:02:33;6.73;;;2.83;;
13999;SDS011;7075;53.574;10.054;2023-08-20T09:04:59;6.87;;;2.50;;
13999;SDS011;7075;53.574;10.054;2023-08-20T09:07:26;6.53;;;2.90;;
13999;SDS011;7075;53.574;10.054;2023-08-20T09:09:56;5.20;;;2.90;;
13999;SDS011;7075;53.574;10.054;2023-08-20T09:12:22;9.43;;;2.63;;
13999;SDS011;7075;53.574;10.054;2023-08-20T09:14:49;4.93;;;2.33;;
13999;SDS011;7075;53.574;10.054;2023-08-20T09:17:15;6.27;;;2.50;;
13999;SDS011;7075;53.574;10.054;2023-08-20T09:19:43;4.17;;;2.10;;
13999;SDS011;7075;53.574;10.054;2023-08-20T09:22:12;6.43;;;2.07;;
13999;SDS011;7075;53.574;10.054;2023-08-20T09:24:45;5.07;;;2.17;;
13999;SDS011;7075;53.574;10.054;2023-08-20T09:27:11;7.47;;;2.83;;
13999;SDS011;7075;53.574;10.054;2023-08-20T09:29:49;7.07;;;2.40;;
13999;SDS011;7075;53.574;10.054;2023-08-20T09:32:16;6.23;;;2.80;;
13999;SDS011;7075;53.574;10.054;2023-08-20T09:34:42;6.17;;;2.63;;
13999;SDS011;7075;53.574;10.054;2023-08-20T09:37:14;4.80;;;2.30;;
13999;SDS011;7075;53.574;10.054;2023-08-20T09:39:40;7.83;;;2.93;;
13999;SDS011;7075;53.574;10.054;2023-08-20T09:42:07;5.23;;;2.70;;
13999;SDS011;7075;53.574;10.054;2023-08-20T09:44:35;5.87;;;2.40;;
13999;SDS011;7075;53.574;10.054;2023-08-20T09:47:10;4.30;;;2.60;;
13999;SDS011;7075;53.574;10.054;2023-08-20T09:49:41;7.37;;;3.40;;
13999;SDS011;7075;53.574;10.054;2023-08-20T09:52:08;6.83;;;3.60;;
13999;SDS011;7075;53.574;10.054;2023-08-20T09:54:36;5.63;;;2.93;;
13999;SDS011;7075;53.574;10.054;2023-08-20T09:57:05;15.00;;;2.80;;
13999;SDS011;7075;53.574;10.054;2023-08-20T09:59:33;6.90;;;2.40;;
13999;SDS011;7075;53.574;10.054;2023-08-20T10:02:00;8.47;;;2.70;;
13999;SDS011;7075;53.574;10.054;2023-08-20T10:04:28;5.03;;;2.90;;
13999;SDS011;7075;53.574;10.054;2023-08-20T10:06:56;6.13;;;2.80;;
13999;SDS011;7075;53.574;10.054;2023-08-20T10:09:23;7.23;;;2.93;;
13999;SDS011;7075;53.574;10.054;2023-08-20T10:11:50;5.00;;;3.10;;
13999;SDS011;7075;53.574;10.054;2023-08-20T10:14:16;5.93;;;2.97;;
13999;SDS011;7075;53.574;10.054;2023-08-20T10:16:42;6.73;;;2.80;;
13999;SDS011;7075;53.574;10.054;2023-08-20T10:19:08;6.77;;;2.60;;
13999;SDS011;7075;53.574;10.054;2023-08-20T10:21:35;10.93;;;2.83;;
13999;SDS011;7075;53.574;10.054;2023-08-20T10:24:04;7.00;;;2.93;;
13999;SDS011;7075;53.574;10.054;2023-08-20T10:26:33;6.60;;;2.93;;
13999;SDS011;7075;53.574;10.054;2023-08-20T10:31:45;9.57;;;2.83;;
13999;SDS011;7075;53.574;10.054;2023-08-20T10:34:12;6.57;;;2.50;;
13999;SDS011;7075;53.574;10.054;2023-08-20T10:37:00;7.20;;;2.30;;
13999;SDS011;7075;53.574;10.054;2023-08-20T10:39:27;6.93;;;2.50;;
13999;SDS011;7075;53.574;10.054;2023-08-20T10:50:08;7.30;;;2.53;;
13999;SDS011;7075;53.574;10.054;2023-08-20T10:52:39;7.60;;;2.43;;
13999;SDS011;7075;53.574;10.054;2023-08-20T10:55:07;7.53;;;2.43;;
13999;SDS011;7075;53.574;10.054;2023-08-20T10:57:36;5.30;;;1.90;;
13999;SDS011;7075;53.574;10.054;2023-08-20T11:00:03;6.10;;;2.83;;
13999;SDS011;7075;53.574;10.054;2023-08-20T11:02:43;4.67;;;1.60;;
13999;SDS011;7075;53.574;10.054;2023-08-20T11:05:15;7.37;;;2.40;;
13999;SDS011;7075;53.574;10.054;2023-08-20T11:07:42;4.47;;;2.00;;
13999;SDS011;7075;53.574;10.054;2023-08-20T11:10:08;5.70;;;2.42;;
13999;SDS011;7075;53.574;10.054;2023-08-20T11:12:37;4.93;;;2.47;;
13999;SDS011;7075;53.574;10.054;2023-08-20T11:15:03;6.97;;;2.00;;
13999;SDS011;7075;53.574;10.054;2023-08-20T11:17:29;4.93;;;2.60;;
13999;SDS011;7075;53.574;10.054;2023-08-20T11:19:57;4.23;;;1.70;;
13999;SDS011;7075;53.574;10.054;2023-08-20T11:22:25;5.32;;;2.10;;
13999;SDS011;7075;53.574;10.054;2023-08-20T11:24:51;5.13;;;2.30;;
13999;SDS011;7075;53.574;10.054;2023-08-20T11:27:16;4.65;;;2.15;;
13999;SDS011;7075;53.574;10.054;2023-08-20T11:29:42;4.78;;;2.13;;
13999;SDS011;7075;53.574;10.054;2023-08-20T11:32:12;4.50;;;2.20;;
13999;SDS011;7075;53.574;10.054;2023-08-20T11:34:39;5.28;;;1.98;;
13999;SDS011;7075;53.574;10.054;2023-08-20T11:37:06;4.35;;;1.98;;
13999;SDS011;7075;53.574;10.054;2023-08-20T11:39:32;4.78;;;1.80;;
13999;SDS011;7075;53.574;10.054;2023-08-20T11:41:58;4.05;;;1.90;;
13999;SDS011;7075;53.574;10.054;2023-08-20T11:44:24;5.30;;;2.45;;
13999;SDS011;7075;53.574;10.054;2023-08-20T11:46:51;6.05;;;2.50;;
13999;SDS011;7075;53.574;10.054;2023-08-20T11:49:26;5.50;;;1.90;;
13999;SDS011;7075;53.574;10.054;2023-08-20T11:51:52;3.42;;;1.98;;
13999;SDS011;7075;53.574;10.054;2023-08-20T11:54:18;4.32;;;2.17;;
13999;SDS011;7075;53.574;10.054;2023-08-20T11:56:45;8.25;;;2.97;;
13999;SDS011;7075;53.574;10.054;2023-08-20T11:59:11;4.22;;;2.17;;
13999;SDS011;7075;53.574;10.054;2023-08-20T12:01:38;6.80;;;2.35;;
13999;SDS011;7075;53.574;10.054;2023-08-20T12:04:04;6.80;;;2.42;;
13999;SDS011;7075;53.574;10.054;2023-08-20T12:06:30;6.00;;;2.78;;
13999;SDS011;7075;53.574;10.054;2023-08-20T12:08:57;8.13;;;2.60;;
13999;SDS011;7075;53.574;10.054;2023-08-20T12:11:27;3.63;;;1.90;;
13999;SDS011;7075;53.574;10.054;2023-08-20T12:14:03;4.75;;;2.08;;
13999;SDS011;7075;53.574;10.054;2023-08-20T12:16:30;4.70;;;2.03;;
13999;SDS011;7075;53.574;10.054;2023-08-20T12:18:56;6.95;;;2.70;;
13999;SDS011;7075;53.574;10.054;2023-08-20T12:21:22;7.00;;;2.47;;
13999;SDS011;7075;53.574;10.054;2023-08-20T12:23:48;5.40;;;1.80;;
13999;SDS011;7075;53.574;10.054;2023-08-20T12:26:15;3.42;;;1.95;;
13999;SDS011;7075;53.574;10.054;2023-08-20T12:28:41;5.25;;;2.35;;
13999;SDS011;7075;53.574;10.054;2023-08-20T12:31:07;4.93;;;2.00;;
13999;SDS011;7075;53.574;10.054;2023-08-20T12:33:33;5.22;;;2.40;;
13999;SDS011;7075;53.574;10.054;2023-08-20T12:36:00;6.60;;;2.60;;
13999;SDS011;7075;53.574;10.054;2023-08-20T12:38:26;3.33;;;1.98;;
13999;SDS011;7075;53.574;10.054;2023-08-20T12:40:58;4.30;;;2.22;;
13999;SDS011;7075;53.574;10.054;2023-08-20T12:43:24;5.07;;;2.13;;
13999;SDS011;7075;53.574;10.054;2023-08-20T12:45:50;6.10;;;2.05;;
13999;SDS011;7075;53.574;10.054;2023-08-20T12:48:16;6.18;;;2.10;;
13999;SDS011;7075;53.574;10.054;2023-08-20T12:50:42;4.97;;;2.25;;
13999;SDS011;7075;53.574;10.054;2023-08-20T12:53:08;4.25;;;1.98;;
13999;SDS011;7075;53.574;10.054;2023-08-20T12:55:34;5.35;;;2.42;;
13999;SDS011;7075;53.574;10.054;2023-08-20T12:58:00;2.85;;;1.77;;
13999;SDS011;7075;53.574;10.054;2023-08-20T13:00:26;8.23;;;2.42;;
13999;SDS011;7075;53.574;10.054;2023-08-20T13:02:53;5.25;;;2.10;;
13999;SDS011;7075;53.574;10.054;2023-08-20T13:05:23;3.60;;;1.67;;
13999;SDS011;7075;53.574;10.054;2023-08-20T13:07:50;4.03;;;1.85;;
13999;SDS011;7075;53.574;10.054;2023-08-20T13:10:16;3.90;;;1.77;;
13999;SDS011;7075;53.574;10.054;2023-08-20T13:12:43;6.32;;;2.58;;
13999;SDS011;7075;53.574;10.054;2023-08-20T13:15:12;4.22;;;2.13;;
13999;SDS011;7075;53.574;10.054;2023-08-20T13:17:39;4.75;;;1.98;;
13999;SDS011;7075;53.574;10.054;2023-08-20T13:20:05;3.58;;;1.95;;
13999;SDS011;7075;53.574;10.054;2023-08-20T13:22:33;4.07;;;1.80;;
13999;SDS011;7075;53.574;10.054;2023-08-20T13:24:59;5.97;;;1.55;;
13999;SDS011;7075;53.574;10.054;2023-08-20T13:27:25;1.95;;;1.45;;
13999;SDS011;7075;53.574;10.054;2023-08-20T13:29:51;6.20;;;1.92;;
13999;SDS011;7075;53.574;10.054;2023-08-20T13:32:18;5.53;;;2.17;;
13999;SDS011;7075;53.574;10.054;2023-08-20T13:34:44;4.45;;;2.00;;
13999;SDS011;7075;53.574;10.054;2023-08-20T13:37:10;6.28;;;2.35;;
13999;SDS011;7075;53.574;10.054;2023-08-20T13:39:36;6.03;;;1.92;;
13999;SDS011;7075;53.574;10.054;2023-08-20T13:42:02;6.07;;;1.80;;
13999;SDS011;7075;53.574;10.054;2023-08-20T13:44:28;4.18;;;1.98;;
13999;SDS011;7075;53.574;10.054;2023-08-20T13:46:54;5.35;;;1.98;;
13999;SDS011;7075;53.574;10.054;2023-08-20T13:49:20;3.40;;;1.92;;
13999;SDS011;7075;53.574;10.054;2023-08-20T13:51:47;9.05;;;1.95;;
13999;SDS011;7075;53.574;10.054;2023-08-20T13:54:12;5.43;;;2.03;;
13999;SDS011;7075;53.574;10.054;2023-08-20T13:56:38;4.53;;;2.00;;
13999;SDS011;7075;53.574;10.054;2023-08-20T13:59:04;8.25;;;2.65;;
13999;SDS011;7075;53.574;10.054;2023-08-20T14:01:30;5.63;;;3.67;;
13999;SDS011;7075;53.574;10.054;2023-08-20T14:03:56;5.07;;;3.25;;
13999;SDS011;7075;53.574;10.054;2023-08-20T14:06:22;4.70;;;2.40;;
13999;SDS011;7075;53.574;10.054;2023-08-20T14:08:48;3.88;;;2.00;;
13999;SDS011;7075;53.574;10.054;2023-08-20T14:11:21;3.03;;;2.10;;
13999;SDS011;7075;53.574;10.054;2023-08-20T14:13:48;2.92;;;1.80;;
13999;SDS011;7075;53.574;10.054;2023-08-20T14:16:14;4.97;;;1.95;;
13999;SDS011;7075;53.574;10.054;2023-08-20T14:18:40;6.35;;;2.40;;
13999;SDS011;7075;53.574;10.054;2023-08-20T14:21:06;6.68;;;2.45;;
13999;SDS011;7075;53.574;10.054;2023-08-20T14:23:32;3.55;;;1.63;;
13999;SDS011;7075;53.574;10.054;2023-08-20T14:26:00;3.42;;;1.90;;
13999;SDS011;7075;53.574;10.054;2023-08-20T14:28:26;3.10;;;1.92;;
13999;SDS011;7075;53.574;10.054;2023-08-20T14:30:52;3.50;;;1.20;;
13999;SDS011;7075;53.574;10.054;2023-08-20T14:33:21;3.92;;;1.77;;
13999;SDS011;7075;53.574;10.054;2023-08-20T14:35:47;6.03;;;2.20;;
13999;SDS011;7075;53.574;10.054;2023-08-20T14:38:13;5.93;;;1.90;;
13999;SDS011;7075;53.574;10.054;2023-08-20T14:40:39;5.43;;;1.60;;
13999;SDS011;7075;53.574;10.054;2023-08-20T14:43:06;3.53;;;1.83;;
13999;SDS011;7075;53.574;10.054;2023-08-20T14:45:32;3.40;;;1.83;;
13999;SDS011;7075;53.574;10.054;2023-08-20T14:47:59;3.65;;;2.05;;
13999;SDS011;7075;53.574;10.054;2023-08-20T14:50:25;5.63;;;2.17;;
13999;SDS011;7075;53.574;10.054;2023-08-20T14:52:51;2.47;;;1.55;;
13999;SDS011;7075;53.574;10.054;2023-08-20T14:55:20;3.20;;;1.60;;
13999;SDS011;7075;53.574;10.054;2023-08-20T14:57:46;5.75;;;2.17;;
13999;SDS011;7075;53.574;10.054;2023-08-20T15:00:13;5.05;;;1.75;;